New York, NY (10075)

10:05 AM EDT on November 01, 2014 (GMT -0400)
Sutton East | Change Station
CLOSE
Current Station
Personal Weather Station
Location: New York, NY
Elevation: 79 ft
Nearby Weather Stations

Elev 79 ft 40.76 °N, 73.97 °W | Updated 7 minutes ago

Light Rain
Light Rain
46.4 °F
Feels Like 46 °F
N
2.7
Wind Variable Wind from North

Today
High -- | Low -- °F
--% Chance of Precip.
Yesterday
High -- | Low -- °F
Precip. -- in
7:26 AM 5:52 PM
Waxing Gibbous, 67% visible
Pressure 29.84 in
Visibility 7.0 miles
Clouds Overcast 4200 ft
Windchill 46 °F
Dew Point Not available.
Humidity Not available.
Rainfall 0.17 in
Snow Depth Not available.
UV 1 out of 12
Pollen .10 out of 12
Air Quality Not available.
Flu Activity Not available.
METAR KNYC 011351Z AUTO 00000KT 7SM -RA OVC042 07/04 A2987 RMK AO2 SLP105 P0002 T00720039 $

More Conditions Fewer Conditions

Pressure 29.84 in
Visibility 7.0 miles
Clouds Overcast 4200 ft
Windchill 46 °F
Dew Point Not available.
Humidity Not available.
Rainfall 0.17 in
Snow Depth Not available.
UV 1 out of 12
Pollen .10 out of 12
Air Quality Not available.
Flu Activity Not available.
METAR KNYC 011351Z AUTO 00000KT 7SM -RA OVC042 07/04 A2987 RMK AO2 SLP105 P0002 T00720039 $

More Conditions Fewer Conditions

10-Day Weather Forecast

Almanac

Astronomy

Nov. 01, 2014 Rise Set
Actual Time
Civil Twilight
Nautical Twilight
Astronomical Twilight
Moon
Length of Visible Light
Length of Day
Tomorrow will be .
, % of the Moon is Illuminated

Today's Extremes

State Highs State Lows

Community

WunderPhotos

Upload Photos

1,766,944 photos uploaded!

WunderBlogs® & News

Nearby

Air Quality

  Air Quality AQ Index Pollutant
Not available.

Snow Depth

Station Depth Elevation

Earthquake Activity

City Distance Mag. Time & Date
Minimum magnitude displayed is 2.5.

Coastal Water Temperatures

Place Temperature

Nearby Weather Stations